Bald Knob, Arkansas
Current Conditions -  °F | °C
As of 11:56 AM on Thursday 29 Jan 2015 (Local Time) from KSRC Reporting Station
Clear Clear  
Wind Chill: 63°   Ceiling: Unl
Heat Index: 63°   Visibility: 10mi
Dew Point: 40°   Wind: 14mph
Humidity: 43%   Direction: 320°NW
Pressure: 30.16"   Gusts: 23mph
Location:  35.31°N, 91.57°W
Report Text: KSRC 291756Z AUTO 32012G20KT 10SM CLR 17/04 A3016 RMK AO2 SLP221 T01720044 10172 20089 51021 TSNO
Loading
Personal Weather Stations






























Interactive Weather Map New forecast layout! Learn more

10-Day Weather Forecast

Advertisements
Track Severe Weather on mobile